Time,TemperatureF,DewpointF,PressureIn,WindDirection,WindDirectionDegrees,WindSpeedMPH,WindSpeedGustMPH,Humidity,HourlyPrecipIn,Conditions,Clouds,dailyrainin,SolarRadiationWatts/m^2,SoftwareType,DateUTC
2013-08-20 00:01:00,74.0,73.1,30.11,NNW,331,0.0,0.0,97,0.00,CLR,OVC,0.24,0.0,WeatherDisplay:10.37,2013-08-20 04:01:00,
2013-08-20 00:02:00,74.0,73.1,30.11,NNW,331,0.0,0.0,97,0.00,CLR,OVC,0.24,0.0,WeatherDisplay:10.37,2013-08-20 04:02:00,
2013-08-20 00:07:00,73.9,73.0,30.11,NNW,331,0.0,0.0,97,0.00,RA,OVC,0.00,0.0,WeatherDisplay:10.37,2013-08-20 04:07:00,
2013-08-20 00:12:00,73.8,72.9,30.11,NNW,331,0.0,0.0,97,0.00,RA,OVC,0.00,0.0,WeatherDisplay:10.37,2013-08-20 04:12:00,
2013-08-20 00:17:00,73.7,72.8,30.11,NNW,331,0.0,0.0,97,0.00,CLR,OVC,0.00,0.0,WeatherDisplay:10.37,2013-08-20 04:17:00,
2013-08-20 00:22:00,73.6,72.7,30.11,NNW,331,0.0,0.0,97,0.00,CLR,OVC,0.00,0.0,WeatherDisplay:10.37,2013-08-20 04:22:00,
2013-08-20 00:27:00,73.6,72.7,30.11,NNW,331,0.0,0.0,97,0.00,CLR,OVC,0.00,0.0,WeatherDisplay:10.37,2013-08-20 04:27:00,
2013-08-20 00:32:00,73.5,72.6,30.11,NNW,331,0.0,0.0,97,0.00,CLR,OVC,0.00,0.0,WeatherDisplay:10.37,2013-08-20 04:32:00,
2013-08-20 00:37:00,73.5,72.6,30.11,NNW,331,0.0,0.0,97,0.00,CLR,OVC,0.00,0.0,WeatherDisplay:10.37,2013-08-20 04:37:00,
2013-08-20 00:42:00,73.4,72.5,30.11,NNW,331,0.0,0.0,97,0.00,CLR,OVC,0.00,0.0,WeatherDisplay:10.37,2013-08-20 04:42:00,
2013-08-20 00:47:00,73.3,72.4,30.11,NNW,331,0.0,0.0,97,0.00,CLR,OVC,0.00,0.0,WeatherDisplay:10.37,2013-08-20 04:47:00,
2013-08-20 00:52:00,73.3,72.4,30.11,NNW,331,0.0,0.0,97,0.00,CLR,OVC,0.00,0.0,WeatherDisplay:10.37,2013-08-20 04:52:00,
2013-08-20 00:57:00,73.1,72.2,30.11,NNW,331,0.0,0.0,97,0.00,CLR,OVC,0.00,0.0,WeatherDisplay:10.37,2013-08-20 04:57:00,
2013-08-20 01:02:00,73.1,72.2,30.10,NNW,331,0.0,0.0,97,0.00,CLR,OVC,0.00,0.0,WeatherDisplay:10.37,2013-08-20 05:02:00,
2013-08-20 01:07:00,73.1,72.2,30.10,NNW,331,0.0,0.0,97,0.00,CLR,OVC,0.00,0.0,WeatherDisplay:10.37,2013-08-20 05:07:00,
2013-08-20 01:12:00,73.1,72.2,30.10,NNW,331,0.0,0.0,97,0.00,CLR,OVC,0.00,0.0,WeatherDisplay:10.37,2013-08-20 05:12:00,
2013-08-20 01:17:00,73.0,72.4,30.10,NNW,331,0.0,0.0,98,0.00,CLR,OVC,0.00,0.0,WeatherDisplay:10.37,2013-08-20 05:17:00,
2013-08-20 01:22:00,73.0,72.1,30.10,NNW,331,0.0,0.0,97,0.00,CLR,OVC,0.00,0.0,WeatherDisplay:10.37,2013-08-20 05:22:00,
2013-08-20 01:27:00,72.9,72.0,30.09,NNW,331,0.0,0.0,97,0.00,CLR,OVC,0.00,0.0,WeatherDisplay:10.37,2013-08-20 05:27:00,
2013-08-20 01:32:00,72.8,71.9,30.09,NNW,331,0.0,0.0,97,0.00,CLR,OVC,0.00,0.0,WeatherDisplay:10.37,2013-08-20 05:32:00,
2013-08-20 01:37:00,72.8,71.9,30.09,NNW,331,0.0,0.0,97,0.00,CLR,OVC,0.00,0.0,WeatherDisplay:10.37,2013-08-20 05:37:00,
2013-08-20 01:42:00,72.8,72.2,30.09,NNW,331,0.0,0.0,98,0.00,CLR,OVC,0.00,0.0,WeatherDisplay:10.37,2013-08-20 05:42:00,
2013-08-20 01:47:00,72.9,72.3,30.10,NNW,331,0.0,0.0,98,0.00,CLR,OVC,0.00,0.0,WeatherDisplay:10.37,2013-08-20 05:47:00,
2013-08-20 01:52:00,73.0,72.4,30.09,NNW,331,0.0,0.0,98,0.00,CLR,OVC,0.00,0.0,WeatherDisplay:10.37,2013-08-20 05:52:00,
2013-08-20 01:57:00,72.9,72.3,30.09,NNW,331,0.0,0.0,98,0.00,CLR,OVC,0.00,0.0,WeatherDisplay:10.37,2013-08-20 05:57:00,
2013-08-20 02:02:00,72.9,72.3,30.10,NNW,331,0.0,0.0,98,0.00,CLR,OVC,0.00,0.0,WeatherDisplay:10.37,2013-08-20 06:02:00,
2013-08-20 02:07:00,72.8,72.2,30.09,NNW,331,0.0,0.0,98,0.00,CLR,OVC,0.00,0.0,WeatherDisplay:10.37,2013-08-20 06:07:00,
2013-08-20 02:12:00,72.8,72.2,30.09,NNW,332,0.0,0.0,98,0.00,CLR,OVC,0.00,0.0,WeatherDisplay:10.37,2013-08-20 06:12:00,
2013-08-20 02:17:00,72.8,72.2,30.09,NNW,332,0.0,0.0,98,0.00,CLR,OVC,0.00,0.0,WeatherDisplay:10.37,2013-08-20 06:17:00,
2013-08-20 02:22:00,72.8,72.2,30.09,NNW,332,0.0,0.0,98,0.00,CLR,OVC,0.00,0.0,WeatherDisplay:10.37,2013-08-20 06:22:00,
2013-08-20 02:27:00,72.7,72.1,30.09,NNW,332,0.0,0.0,98,0.00,CLR,OVC,0.00,0.0,WeatherDisplay:10.37,2013-08-20 06:27:00,
2013-08-20 02:32:00,72.6,72.0,30.09,NNW,332,0.0,0.0,98,0.00,CLR,OVC,0.00,0.0,WeatherDisplay:10.37,2013-08-20 06:32:00,
2013-08-20 02:37:00,72.6,72.0,30.09,NNW,332,0.0,0.0,98,0.00,CLR,OVC,0.00,0.0,WeatherDisplay:10.37,2013-08-20 06:37:00,
2013-08-20 02:42:00,72.5,71.9,30.09,NNW,332,0.0,0.0,98,0.00,CLR,OVC,0.00,0.0,WeatherDisplay:10.37,2013-08-20 06:42:00,
2013-08-20 02:47:00,72.4,71.8,30.09,NNW,332,0.0,0.0,98,0.00,CLR,OVC,0.00,0.0,WeatherDisplay:10.37,2013-08-20 06:47:00,
2013-08-20 02:52:00,72.3,71.7,30.09,NNW,332,0.0,0.0,98,0.00,CLR,OVC,0.00,0.0,WeatherDisplay:10.37,2013-08-20 06:52:00,
2013-08-20 02:57:00,72.2,71.6,30.09,NNW,332,0.0,0.0,98,0.00,CLR,OVC,0.00,0.0,WeatherDisplay:10.37,2013-08-20 06:57:00,
2013-08-20 03:02:00,72.2,71.6,30.09,NNW,332,0.0,0.0,98,0.00,CLR,OVC,0.00,0.0,WeatherDisplay:10.37,2013-08-20 07:02:00,
2013-08-20 03:07:00,72.1,71.5,30.09,NNW,332,0.0,0.0,98,0.00,CLR,OVC,0.00,0.0,WeatherDisplay:10.37,2013-08-20 07:07:00,
2013-08-20 03:12:00,72.1,71.5,30.09,NNW,332,0.0,0.0,98,0.00,CLR,OVC,0.00,0.0,WeatherDisplay:10.37,2013-08-20 07:12:00,
2013-08-20 03:17:00,72.0,71.4,30.09,NNW,332,0.0,0.0,98,0.00,CLR,OVC,0.00,0.0,WeatherDisplay:10.37,2013-08-20 07:17:00,
2013-08-20 03:22:00,72.0,71.4,30.09,NNW,332,0.0,0.0,98,0.00,CLR,OVC,0.00,0.0,WeatherDisplay:10.37,2013-08-20 07:22:00,
2013-08-20 03:27:00,72.0,71.4,30.09,NNW,343,0.0,0.0,98,0.00,CLR,OVC,0.00,0.0,WeatherDisplay:10.37,2013-08-20 07:27:00,
2013-08-20 03:32:00,72.0,71.4,30.09,NNW,343,0.0,0.0,98,0.00,CLR,OVC,0.00,0.0,WeatherDisplay:10.37,2013-08-20 07:32:00,
2013-08-20 03:37:00,72.0,71.4,30.09,NNW,343,0.0,0.0,98,0.00,CLR,OVC,0.00,0.0,WeatherDisplay:10.37,2013-08-20 07:37:00,
2013-08-20 03:42:00,72.0,71.4,30.09,NNW,343,0.0,0.0,98,0.00,CLR,OVC,0.00,0.0,WeatherDisplay:10.37,2013-08-20 07:42:00,
2013-08-20 03:47:00,72.0,71.4,30.09,NNW,344,0.0,0.0,98,0.00,CLR,OVC,0.00,0.0,WeatherDisplay:10.37,2013-08-20 07:47:00,
2013-08-20 03:52:00,72.0,71.4,30.09,NNW,344,0.0,0.0,98,0.00,CLR,OVC,0.00,0.0,WeatherDisplay:10.37,2013-08-20 07:52:00,
2013-08-20 03:57:00,72.0,71.4,30.09,NNW,344,0.0,0.0,98,0.00,CLR,OVC,0.00,0.0,WeatherDisplay:10.37,2013-08-20 07:57:00,
2013-08-20 04:02:00,72.0,71.4,30.09,NNW,344,0.0,0.0,98,0.00,CLR,OVC,0.00,0.0,WeatherDisplay:10.37,2013-08-20 08:02:00,
2013-08-20 04:07:00,72.0,71.4,30.09,NNW,344,0.0,0.0,98,0.00,CLR,OVC,0.00,0.0,WeatherDisplay:10.37,2013-08-20 08:07:00,
2013-08-20 04:12:00,72.0,71.4,30.09,NNW,344,0.0,0.0,98,0.00,CLR,OVC,0.00,0.0,WeatherDisplay:10.37,2013-08-20 08:12:00,
2013-08-20 04:17:00,72.0,71.4,30.09,NNW,344,0.0,0.0,98,0.00,CLR,OVC,0.00,0.0,WeatherDisplay:10.37,2013-08-20 08:17:00,
2013-08-20 04:22:00,72.0,71.4,30.09,NNW,345,0.0,0.0,98,0.00,CLR,OVC,0.00,0.0,WeatherDisplay:10.37,2013-08-20 08:22:00,
2013-08-20 04:27:00,72.0,71.4,30.09,NNW,344,0.0,0.0,98,0.00,CLR,OVC,0.00,0.0,WeatherDisplay:10.37,2013-08-20 08:27:00,
2013-08-20 04:32:00,72.0,71.4,30.09,NNW,344,0.0,0.0,98,0.00,CLR,OVC,0.00,0.0,WeatherDisplay:10.37,2013-08-20 08:32:00,
2013-08-20 04:37:00,72.0,71.4,30.08,NNW,344,0.0,0.0,98,0.00,CLR,OVC,0.00,0.0,WeatherDisplay:10.37,2013-08-20 08:37:00,
2013-08-20 04:43:00,71.9,71.3,30.09,NNW,344,0.0,0.0,98,0.00,CLR,OVC,0.00,0.0,WeatherDisplay:10.37,2013-08-20 08:43:00,
2013-08-20 04:48:00,71.9,71.3,30.09,NNW,344,0.0,0.0,98,0.00,CLR,OVC,0.00,0.0,WeatherDisplay:10.37,2013-08-20 08:48:00,
2013-08-20 04:53:00,71.9,71.3,30.09,NNW,344,0.0,0.0,98,0.00,CLR,OVC,0.00,0.0,WeatherDisplay:10.37,2013-08-20 08:53:00,
2013-08-20 04:58:00,71.8,71.2,30.09,NNW,345,0.0,0.0,98,0.00,CLR,OVC,0.00,0.0,WeatherDisplay:10.37,2013-08-20 08:58:00,
2013-08-20 05:03:00,71.8,71.2,30.09,NNW,344,0.0,0.0,98,0.00,CLR,OVC,0.00,0.0,WeatherDisplay:10.37,2013-08-20 09:03:00,
2013-08-20 05:08:00,71.7,71.1,30.09,NNW,344,0.0,0.0,98,0.00,CLR,OVC,0.00,0.0,WeatherDisplay:10.37,2013-08-20 09:08:00,
2013-08-20 05:13:00,71.7,71.1,30.09,NNW,344,0.0,0.0,98,0.00,CLR,OVC,0.00,0.0,WeatherDisplay:10.37,2013-08-20 09:13:00,
2013-08-20 05:18:00,71.7,71.1,30.09,NNW,344,0.0,0.0,98,0.00,CLR,OVC,0.00,0.0,WeatherDisplay:10.37,2013-08-20 09:18:00,
2013-08-20 05:23:00,71.6,71.0,30.09,NNW,344,0.0,0.0,98,0.00,CLR,OVC,0.00,0.0,WeatherDisplay:10.37,2013-08-20 09:23:00,
2013-08-20 05:28:00,71.7,71.1,30.09,NNW,344,0.0,0.0,98,0.00,CLR,OVC,0.00,0.0,WeatherDisplay:10.37,2013-08-20 09:28:00,
2013-08-20 05:33:00,71.7,71.1,30.10,NNW,344,0.0,0.0,98,0.00,CLR,OVC,0.00,0.0,WeatherDisplay:10.37,2013-08-20 09:33:00,
2013-08-20 05:38:00,71.7,71.1,30.10,NNW,344,0.0,0.0,98,0.00,CLR,OVC,0.00,0.0,WeatherDisplay:10.37,2013-08-20 09:38:00,
2013-08-20 05:43:00,71.7,71.1,30.10,NNW,344,0.0,0.0,98,0.00,CLR,OVC,0.00,0.0,WeatherDisplay:10.37,2013-08-20 09:43:00,
2013-08-20 05:48:00,71.7,71.1,30.09,NNW,344,0.0,0.0,98,0.00,CLR,OVC,0.00,0.0,WeatherDisplay:10.37,2013-08-20 09:48:00,
2013-08-20 05:53:00,71.7,71.1,30.09,NNW,348,0.0,0.0,98,0.00,CLR,OVC,0.00,0.0,WeatherDisplay:10.37,2013-08-20 09:53:00,
2013-08-20 05:58:00,71.7,71.1,30.10,NNW,348,0.0,0.0,98,0.00,CLR,OVC,0.00,0.0,WeatherDisplay:10.37,2013-08-20 09:58:00,
2013-08-20 06:03:00,71.7,71.1,30.10,NNW,348,0.0,0.0,98,0.00,CLR,OVC,0.00,0.0,WeatherDisplay:10.37,2013-08-20 10:03:00,
2013-08-20 06:08:00,71.6,71.0,30.10,NNE,23,0.0,0.0,98,0.00,CLR,OVC,0.00,0.0,WeatherDisplay:10.37,2013-08-20 10:08:00,
2013-08-20 06:13:00,71.6,71.0,30.10,NNE,24,0.0,0.0,98,0.00,OVC,,0.00,0.0,WeatherDisplay:10.37,2013-08-20 10:13:00,
2013-08-20 06:18:00,71.6,71.0,30.10,NNE,24,0.0,0.0,98,0.00,OVC,,0.00,0.0,WeatherDisplay:10.37,2013-08-20 10:18:00,
2013-08-20 06:23:00,71.5,70.9,30.11,NNE,24,0.0,0.0,98,0.00,OVC,,0.00,0.0,WeatherDisplay:10.37,2013-08-20 10:23:00,
2013-08-20 06:28:00,71.5,70.9,30.10,NNE,27,0.0,0.0,98,0.00,OVC,,0.00,0.0,WeatherDisplay:10.37,2013-08-20 10:28:00,
2013-08-20 06:33:00,71.5,70.9,30.11,NNE,26,0.0,0.0,98,0.00,OVC,,0.00,0.0,WeatherDisplay:10.37,2013-08-20 10:33:00,
2013-08-20 06:38:00,71.4,70.8,30.11,NNE,26,0.0,0.0,98,0.00,OVC,,0.00,0.0,WeatherDisplay:10.37,2013-08-20 10:38:00,
2013-08-20 06:43:00,71.5,71.2,30.11,NNE,26,0.0,0.0,99,0.00,OVC,,0.00,0.0,WeatherDisplay:10.37,2013-08-20 10:43:00,
2013-08-20 06:48:00,71.5,71.2,30.11,NNE,26,0.0,0.0,99,0.00,OVC,,0.00,0.0,WeatherDisplay:10.37,2013-08-20 10:48:00,
2013-08-20 06:53:00,71.5,71.2,30.12,NNE,26,0.0,0.0,99,0.00,OVC,,0.00,0.0,WeatherDisplay:10.37,2013-08-20 10:53:00,
2013-08-20 06:58:00,71.5,71.2,30.12,NNE,26,0.0,0.0,99,0.00,OVC,,0.00,0.0,WeatherDisplay:10.37,2013-08-20 10:58:00,
2013-08-20 07:03:00,71.5,71.2,30.12,NNE,26,0.0,0.0,99,0.00,OVC,,0.00,0.0,WeatherDisplay:10.37,2013-08-20 11:03:00,
2013-08-20 07:08:00,71.5,71.2,30.12,NNE,26,0.0,0.0,99,0.00,OVC,,0.00,0.0,WeatherDisplay:10.37,2013-08-20 11:08:00,
2013-08-20 07:13:00,71.5,71.2,30.12,NNE,26,0.0,0.0,99,0.00,OVC,,0.00,0.0,WeatherDisplay:10.37,2013-08-20 11:13:00,
2013-08-20 07:18:00,71.5,71.2,30.12,NNE,26,0.0,0.0,99,0.00,OVC,,0.00,0.0,WeatherDisplay:10.37,2013-08-20 11:18:00,
2013-08-20 07:23:00,71.6,71.3,30.12,NNE,26,0.0,0.0,99,0.00,OVC,,0.00,0.0,WeatherDisplay:10.37,2013-08-20 11:23:00,
2013-08-20 07:28:00,71.6,71.3,30.12,NNE,32,0.0,0.0,99,0.00,OVC,,0.00,0.0,WeatherDisplay:10.37,2013-08-20 11:28:00,
2013-08-20 07:33:00,71.6,71.3,30.12,North,5,0.0,0.0,99,0.00,OVC,,0.00,0.0,WeatherDisplay:10.37,2013-08-20 11:33:00,
2013-08-20 07:38:00,71.7,71.4,30.12,NNE,13,0.0,0.0,99,0.00,OVC,,0.00,0.0,WeatherDisplay:10.37,2013-08-20 11:38:00,
2013-08-20 07:43:00,71.9,71.6,30.13,NNE,15,0.0,0.0,99,0.00,OVC,,0.00,0.0,WeatherDisplay:10.37,2013-08-20 11:43:00,
2013-08-20 07:48:00,72.1,71.8,30.13,NNE,15,0.0,0.0,99,0.00,OVC,,0.00,0.0,WeatherDisplay:10.37,2013-08-20 11:48:00,
2013-08-20 07:53:00,72.2,71.9,30.13,NNE,15,0.0,0.0,99,0.00,OVC,,0.00,0.0,WeatherDisplay:10.37,2013-08-20 11:53:00,
2013-08-20 07:58:00,72.4,72.1,30.13,NNE,15,0.0,0.0,99,0.00,OVC,,0.00,0.0,WeatherDisplay:10.37,2013-08-20 11:58:00,
2013-08-20 08:03:00,72.5,72.2,30.13,NNE,15,0.0,0.0,99,0.00,OVC,,0.00,0.0,WeatherDisplay:10.37,2013-08-20 12:03:00,
2013-08-20 08:08:00,72.8,72.5,30.13,NE,54,0.0,0.0,99,0.00,OVC,,0.00,0.0,WeatherDisplay:10.37,2013-08-20 12:08:00,
2013-08-20 08:13:00,72.8,72.5,30.13,NE,50,0.0,0.0,99,0.00,OVC,,0.00,0.0,WeatherDisplay:10.37,2013-08-20 12:13:00,
2013-08-20 08:18:00,72.9,72.6,30.13,NNE,16,0.1,0.0,99,0.00,OVC,,0.00,0.0,WeatherDisplay:10.37,2013-08-20 12:18:00,
2013-08-20 08:23:00,73.0,72.7,30.13,NE,52,0.0,0.0,99,0.00,OVC,,0.00,0.0,WeatherDisplay:10.37,2013-08-20 12:23:00,
2013-08-20 08:28:00,73.2,72.9,30.14,ENE,63,0.0,0.0,99,0.00,OVC,,0.00,0.0,WeatherDisplay:10.37,2013-08-20 12:28:00,
2013-08-20 08:33:00,73.4,73.1,30.14,ENE,63,0.0,0.0,99,0.00,OVC,,0.00,0.0,WeatherDisplay:10.37,2013-08-20 12:33:00,
2013-08-20 08:38:00,73.8,73.5,30.14,ENE,58,0.0,0.0,99,0.00,OVC,,0.00,0.0,WeatherDisplay:10.37,2013-08-20 12:38:00,
2013-08-20 08:43:00,73.9,73.6,30.14,NE,52,2.6,4.6,99,0.00,OVC,,0.00,0.0,WeatherDisplay:10.37,2013-08-20 12:43:00,
2013-08-20 08:48:00,74.2,73.9,30.14,NE,53,1.1,2.3,99,0.00,OVC,,0.00,0.0,WeatherDisplay:10.37,2013-08-20 12:48:00,
2013-08-20 08:53:00,74.5,74.2,30.14,NE,48,1.5,2.3,99,0.00,OVC,,0.00,0.0,WeatherDisplay:10.37,2013-08-20 12:53:00,
2013-08-20 08:58:00,74.6,74.3,30.14,ENE,73,1.5,1.5,99,0.00,OVC,,0.00,0.0,WeatherDisplay:10.37,2013-08-20 12:58:00,
2013-08-20 09:03:00,74.8,74.5,30.14,ENE,73,1.5,3.5,99,0.00,OVC,,0.00,0.0,WeatherDisplay:10.37,2013-08-20 13:03:00,
2013-08-20 09:08:00,74.9,74.6,30.14,ENE,74,0.0,3.5,99,0.00,OVC,,0.00,0.0,WeatherDisplay:10.37,2013-08-20 13:08:00,
2013-08-20 09:13:00,75.2,74.9,30.14,ENE,74,1.3,2.3,99,0.00,OVC,,0.00,0.0,WeatherDisplay:10.37,2013-08-20 13:13:00,
2013-08-20 09:18:00,75.2,74.9,30.14,NE,36,0.0,1.1,99,0.00,OVC,,0.00,0.0,WeatherDisplay:10.37,2013-08-20 13:18:00,
2013-08-20 09:23:00,75.4,75.1,30.15,NE,35,0.1,1.1,99,0.00,OVC,,0.00,0.0,WeatherDisplay:10.37,2013-08-20 13:23:00,
2013-08-20 09:28:00,75.8,75.5,30.15,NE,35,0.4,1.1,99,0.00,OVC,,0.00,0.0,WeatherDisplay:10.37,2013-08-20 13:28:00,
2013-08-20 09:33:00,75.9,75.6,30.15,NE,51,2.6,3.5,99,0.00,OVC,,0.00,0.0,WeatherDisplay:10.37,2013-08-20 13:33:00,
2013-08-20 09:38:00,76.3,76.0,30.15,NE,49,0.9,1.1,99,0.00,OVC,,0.00,0.0,WeatherDisplay:10.37,2013-08-20 13:38:00,
2013-08-20 09:43:00,76.6,76.3,30.15,North,5,1.9,3.5,99,0.00,OVC,,0.00,0.0,WeatherDisplay:10.37,2013-08-20 13:43:00,
2013-08-20 09:48:00,77.1,76.8,30.15,NNE,28,0.3,2.3,99,0.00,OVC,,0.00,0.0,WeatherDisplay:10.37,2013-08-20 13:48:00,
2013-08-20 09:53:00,77.4,76.8,30.15,NNE,30,1.3,3.5,98,0.00,OVC,,0.00,0.0,WeatherDisplay:10.37,2013-08-20 13:53:00,
2013-08-20 09:58:00,77.8,76.9,30.15,NE,42,0.6,1.1,97,0.00,OVC,,0.00,0.0,WeatherDisplay:10.37,2013-08-20 13:58:00,
2013-08-20 10:03:00,78.0,76.5,30.15,East,98,1.6,4.6,95,0.00,OVC,,0.00,0.0,WeatherDisplay:10.37,2013-08-20 14:03:00,
2013-08-20 10:09:00,78.8,76.9,30.16,NE,46,2.8,4.6,94,0.00,OVC,,0.00,0.0,WeatherDisplay:10.37,2013-08-20 14:09:00,
2013-08-20 10:13:00,79.4,77.2,30.15,ENE,66,0.1,1.1,93,0.00,OVC,,0.00,0.0,WeatherDisplay:10.37,2013-08-20 14:13:00,
2013-08-20 10:19:00,80.1,76.9,30.16,NE,56,3.2,5.8,90,0.00,OVC,,0.00,0.0,WeatherDisplay:10.37,2013-08-20 14:19:00,
2013-08-20 10:24:00,80.6,77.1,30.16,East,86,1.1,3.5,89,0.00,OVC,,0.00,0.0,WeatherDisplay:10.37,2013-08-20 14:24:00,
2013-08-20 10:29:00,81.2,77.3,30.16,East,82,1.6,3.5,88,0.00,OVC,,0.00,0.0,WeatherDisplay:10.37,2013-08-20 14:29:00,
2013-08-20 10:34:00,81.8,77.5,30.16,NE,34,3.0,4.6,87,0.00,OVC,,0.00,0.0,WeatherDisplay:10.37,2013-08-20 14:34:00,
2013-08-20 10:39:00,82.1,77.1,30.16,NE,46,1.0,3.5,85,0.00,OVC,,0.00,0.0,WeatherDisplay:10.37,2013-08-20 14:39:00,
2013-08-20 10:44:00,82.3,77.7,30.16,East,97,0.0,1.1,86,0.00,OVC,,0.00,0.0,WeatherDisplay:10.37,2013-08-20 14:44:00,
2013-08-20 10:49:00,82.5,77.5,30.16,ESE,103,0.3,1.1,85,0.00,OVC,,0.00,0.0,WeatherDisplay:10.37,2013-08-20 14:49:00,
2013-08-20 10:54:00,83.0,78.0,30.16,NE,46,0.1,0.0,85,0.00,OVC,,0.00,0.0,WeatherDisplay:10.37,2013-08-20 14:54:00,
2013-08-20 10:59:00,83.4,78.1,30.16,NE,51,0.2,3.5,84,0.00,OVC,,0.00,0.0,WeatherDisplay:10.37,2013-08-20 14:59:00,
2013-08-20 11:04:00,84.1,78.7,30.16,ENE,62,1.1,4.6,84,0.00,OVC,,0.00,0.0,WeatherDisplay:10.37,2013-08-20 15:04:00,
2013-08-20 11:09:00,84.5,78.0,30.16,East,80,4.5,8.1,81,0.00,OVC,,0.00,0.0,WeatherDisplay:10.37,2013-08-20 15:09:00,
2013-08-20 11:14:00,84.7,78.2,30.16,NE,46,2.3,4.6,81,0.00,OVC,,0.00,0.0,WeatherDisplay:10.37,2013-08-20 15:14:00,
2013-08-20 11:19:00,84.7,78.2,30.16,ESE,111,2.6,4.6,81,0.00,OVC,,0.00,0.0,WeatherDisplay:10.37,2013-08-20 15:19:00,
2013-08-20 11:24:00,84.2,77.4,30.16,South,180,1.4,3.5,80,0.00,OVC,,0.00,0.0,WeatherDisplay:10.37,2013-08-20 15:24:00,
2013-08-20 11:29:00,84.0,77.5,30.16,ENE,78,2.8,3.5,81,0.00,OVC,,0.00,0.0,WeatherDisplay:10.37,2013-08-20 15:29:00,
2013-08-20 11:34:00,83.7,77.2,30.16,ENE,78,2.5,4.0,81,0.00,OVC,,0.00,0.0,WeatherDisplay:10.37,2013-08-20 15:34:00,
2013-08-20 11:39:00,83.2,77.5,30.16,ENE,63,0.2,1.1,83,0.00,OVC,,0.00,0.0,WeatherDisplay:10.37,2013-08-20 15:39:00,
2013-08-20 11:44:00,82.7,77.0,30.16,NE,40,5.5,9.2,83,0.00,OVC,,0.00,0.0,WeatherDisplay:10.37,2013-08-20 15:44:00,
2013-08-20 11:49:00,82.3,76.6,30.16,ESE,122,1.6,6.9,83,0.00,OVC,,0.00,0.0,WeatherDisplay:10.37,2013-08-20 15:49:00,
2013-08-20 11:54:00,82.1,77.1,30.16,East,92,0.0,2.3,85,0.00,OVC,,0.00,0.0,WeatherDisplay:10.37,2013-08-20 15:54:00,
2013-08-20 11:59:00,82.3,77.3,30.16,SSE,159,0.8,3.5,85,0.00,OVC,,0.00,0.0,WeatherDisplay:10.37,2013-08-20 15:59:00,
2013-08-20 12:04:00,83.0,77.7,30.15,ENE,59,1.8,4.6,84,0.00,OVC,,0.00,0.0,WeatherDisplay:10.37,2013-08-20 16:04:00,
2013-08-20 12:09:00,83.7,77.6,30.16,East,84,5.2,6.9,82,0.00,OVC,,0.00,0.0,WeatherDisplay:10.37,2013-08-20 16:09:00,
2013-08-20 12:14:00,83.5,77.4,30.15,East,86,4.2,8.1,82,0.00,OVC,,0.00,0.0,WeatherDisplay:10.37,2013-08-20 16:14:00,
2013-08-20 12:19:00,83.3,77.6,30.16,ESE,109,1.0,3.5,83,0.00,OVC,,0.00,0.0,WeatherDisplay:10.37,2013-08-20 16:19:00,
2013-08-20 12:24:00,83.4,77.7,30.16,SE,126,4.3,8.1,83,0.00,OVC,,0.00,0.0,WeatherDisplay:10.37,2013-08-20 16:24:00,
2013-08-20 12:30:00,83.3,77.6,30.16,East,83,3.0,7.0,83,0.00,OVC,,0.00,0.0,WeatherDisplay:10.37,2013-08-20 16:30:00,
2013-08-20 12:35:00,83.1,77.0,30.15,ESE,110,4.2,8.1,82,0.00,OVC,,0.00,0.0,WeatherDisplay:10.37,2013-08-20 16:35:00,
2013-08-20 12:40:00,82.8,77.1,30.15,ESE,115,4.9,8.1,83,0.00,OVC,,0.00,0.0,WeatherDisplay:10.37,2013-08-20 16:40:00,
2013-08-20 12:45:00,82.4,77.1,30.15,ENE,60,2.1,3.5,84,0.00,OVC,,0.00,0.0,WeatherDisplay:10.37,2013-08-20 16:45:00,
2013-08-20 12:50:00,82.1,76.8,30.15,East,92,2.1,4.6,84,0.00,OVC,,0.00,0.0,WeatherDisplay:10.37,2013-08-20 16:50:00,
2013-08-20 12:55:00,82.0,77.0,30.15,East,91,1.3,4.6,85,0.00,OVC,,0.00,0.0,WeatherDisplay:10.37,2013-08-20 16:55:00,
2013-08-20 13:00:00,82.0,77.0,30.15,ESE,117,0.3,4.6,85,0.00,OVC,,0.00,0.0,WeatherDisplay:10.37,2013-08-20 17:00:00,
2013-08-20 13:05:00,82.1,76.8,30.15,SE,136,0.1,1.1,84,0.00,OVC,,0.00,0.0,WeatherDisplay:10.37,2013-08-20 17:05:00,
2013-08-20 13:10:00,82.4,77.1,30.15,East,98,1.4,3.5,84,0.00,OVC,,0.00,0.0,WeatherDisplay:10.37,2013-08-20 17:10:00,
2013-08-20 13:15:00,82.4,76.7,30.15,ESE,107,3.0,4.6,83,0.00,OVC,,0.00,0.0,WeatherDisplay:10.37,2013-08-20 17:15:00,
2013-08-20 13:20:00,82.3,77.0,30.15,ESE,114,0.3,3.5,84,0.00,OVC,,0.00,0.0,WeatherDisplay:10.37,2013-08-20 17:20:00,
2013-08-20 13:25:00,82.3,77.3,30.15,ESE,121,2.1,8.1,85,0.00,OVC,,0.00,0.0,WeatherDisplay:10.37,2013-08-20 17:25:00,
2013-08-20 13:30:00,82.4,77.1,30.15,ESE,113,2.6,5.0,84,0.00,OVC,,0.00,0.0,WeatherDisplay:10.37,2013-08-20 17:30:00,
2013-08-20 13:35:00,82.7,77.4,30.15,ESE,107,3.5,6.9,84,0.00,OVC,,0.00,0.0,WeatherDisplay:10.37,2013-08-20 17:35:00,
2013-08-20 13:40:00,83.3,78.0,30.15,SE,140,3.5,6.0,84,0.00,OVC,,0.00,0.0,WeatherDisplay:10.37,2013-08-20 17:40:00,
2013-08-20 13:45:00,83.5,77.8,30.15,ENE,68,0.6,3.5,83,0.00,OVC,,0.00,0.0,WeatherDisplay:10.37,2013-08-20 17:45:00,
2013-08-20 13:50:00,83.3,76.9,30.15,ESE,122,3.8,6.9,81,0.00,OVC,,0.00,0.0,WeatherDisplay:10.37,2013-08-20 17:50:00,
2013-08-20 13:55:00,82.7,76.6,30.15,SE,124,3.0,4.6,82,0.00,OVC,,0.00,0.0,WeatherDisplay:10.37,2013-08-20 17:55:00,
2013-08-20 14:00:00,82.3,76.6,30.15,East,100,3.2,6.9,83,0.00,OVC,,0.00,0.0,WeatherDisplay:10.37,2013-08-20 18:00:00,
2013-08-20 14:05:00,82.2,76.5,30.15,ESE,121,2.1,3.5,83,0.00,OVC,,0.00,0.0,WeatherDisplay:10.37,2013-08-20 18:05:00,
2013-08-20 14:10:00,82.3,77.0,30.14,East,84,6.5,9.2,84,0.00,OVC,,0.00,0.0,WeatherDisplay:10.37,2013-08-20 18:10:00,
2013-08-20 14:15:00,82.5,77.2,30.14,NNE,14,4.4,6.9,84,0.00,OVC,,0.00,0.0,WeatherDisplay:10.37,2013-08-20 18:15:00,
2013-08-20 14:20:00,82.6,77.3,30.13,NE,56,3.6,5.8,84,0.00,OVC,,0.00,0.0,WeatherDisplay:10.37,2013-08-20 18:20:00,
2013-08-20 14:25:00,82.7,77.0,30.13,East,82,3.6,5.8,83,0.00,OVC,,0.00,0.0,WeatherDisplay:10.37,2013-08-20 18:25:00,
2013-08-20 14:30:00,82.6,76.9,30.14,ESE,123,2.7,5.8,83,0.00,OVC,,0.00,0.0,WeatherDisplay:10.37,2013-08-20 18:30:00,
2013-08-20 14:35:00,82.5,77.2,30.14,ENE,66,4.0,4.0,84,0.00,OVC,,0.00,0.0,WeatherDisplay:10.37,2013-08-20 18:35:00,
2013-08-20 14:40:00,82.6,76.9,30.14,ENE,68,4.9,8.1,83,0.00,OVC,,0.00,0.0,WeatherDisplay:10.37,2013-08-20 18:40:00,
2013-08-20 14:45:00,82.6,76.5,30.13,SE,135,6.1,9.2,82,0.00,OVC,,0.00,0.0,WeatherDisplay:10.37,2013-08-20 18:45:00,
2013-08-20 14:50:00,82.7,77.0,30.13,ENE,65,6.8,11.5,83,0.00,OVC,,0.00,0.0,WeatherDisplay:10.37,2013-08-20 18:50:00,
2013-08-20 14:55:00,82.9,76.8,30.13,NE,55,7.4,10.4,82,0.00,OVC,,0.00,0.0,WeatherDisplay:10.37,2013-08-20 18:55:00,
2013-08-20 15:00:00,83.0,77.3,30.13,SE,134,4.3,6.9,83,0.00,OVC,,0.00,0.0,WeatherDisplay:10.37,2013-08-20 19:00:00,
2013-08-20 15:05:00,83.6,77.9,30.13,East,101,6.1,6.9,83,0.00,OVC,,0.00,0.0,WeatherDisplay:10.37,2013-08-20 19:05:00,
2013-08-20 15:10:00,83.6,77.5,30.13,ENE,60,6.5,11.0,82,0.00,OVC,,0.00,0.0,WeatherDisplay:10.37,2013-08-20 19:10:00,
2013-08-20 15:15:00,83.2,76.8,30.13,ENE,71,4.8,10.4,81,0.00,OVC,,0.00,0.0,WeatherDisplay:10.37,2013-08-20 19:15:00,
2013-08-20 15:20:00,83.1,77.4,30.12,East,87,2.6,4.6,83,0.00,OVC,,0.00,0.0,WeatherDisplay:10.37,2013-08-20 19:20:00,
2013-08-20 15:25:00,83.1,77.0,30.12,SE,128,5.4,8.1,82,0.00,OVC,,0.00,0.0,WeatherDisplay:10.37,2013-08-20 19:25:00,
2013-08-20 15:30:00,83.0,76.9,30.12,ESE,103,4.5,8.1,82,0.00,OVC,,0.00,0.0,WeatherDisplay:10.37,2013-08-20 19:30:00,
2013-08-20 15:35:00,82.8,76.7,30.12,East,96,5.3,10.4,82,0.00,OVC,,0.00,0.0,WeatherDisplay:10.37,2013-08-20 19:35:00,
2013-08-20 15:40:00,82.7,77.0,30.12,East,90,5.2,9.0,83,0.00,OVC,,0.00,0.0,WeatherDisplay:10.37,2013-08-20 19:40:00,
2013-08-20 15:45:00,82.7,77.0,30.12,ENE,65,3.7,5.8,83,0.00,OVC,,0.00,0.0,WeatherDisplay:10.37,2013-08-20 19:45:00,
2013-08-20 15:50:00,83.0,77.7,30.11,East,93,2.7,6.9,84,0.00,OVC,,0.00,0.0,WeatherDisplay:10.37,2013-08-20 19:50:00,
2013-08-20 15:55:00,83.6,77.5,30.11,ENE,61,6.9,10.0,82,0.00,OVC,,0.00,0.0,WeatherDisplay:10.37,2013-08-20 19:55:00,
2013-08-20 16:00:00,83.3,77.2,30.11,ENE,67,5.6,8.1,82,0.00,OVC,,0.00,0.0,WeatherDisplay:10.37,2013-08-20 20:00:00,
2013-08-20 16:05:00,82.6,76.9,30.11,East,79,4.9,10.4,83,0.00,OVC,,0.00,0.0,WeatherDisplay:10.37,2013-08-20 20:05:00,
2013-08-20 16:10:00,82.1,76.8,30.12,East,91,5.0,11.5,84,0.00,OVC,,0.00,0.0,WeatherDisplay:10.37,2013-08-20 20:10:00,
2013-08-20 16:15:00,81.8,76.8,30.12,East,82,3.9,7.0,85,0.00,OVC,,0.00,0.0,WeatherDisplay:10.37,2013-08-20 20:15:00,
2013-08-20 16:20:00,81.3,76.4,30.12,ENE,69,4.6,6.9,85,0.00,OVC,,0.00,0.0,WeatherDisplay:10.37,2013-08-20 20:20:00,
2013-08-20 16:25:00,80.9,76.3,30.12,East,94,3.3,9.2,86,0.00,OVC,,0.00,0.0,WeatherDisplay:10.37,2013-08-20 20:25:00,
2013-08-20 16:30:00,80.6,76.4,30.12,NE,41,3.9,8.1,87,0.00,OVC,,0.00,0.0,WeatherDisplay:10.37,2013-08-20 20:30:00,
2013-08-20 16:35:00,80.5,76.6,30.13,NNW,329,0.3,2.3,88,0.00,OVC,,0.00,0.0,WeatherDisplay:10.37,2013-08-20 20:35:00,
2013-08-20 16:40:00,80.3,76.8,30.13,ESE,113,0.4,2.3,89,0.01,RA,OVC,0.01,0.0,WeatherDisplay:10.37,2013-08-20 20:40:00,
2013-08-20 16:45:00,80.0,76.5,30.13,East,79,1.5,4.6,89,0.01,RA,OVC,0.01,0.0,WeatherDisplay:10.37,2013-08-20 20:45:00,
2013-08-20 16:50:00,79.8,76.6,30.14,NNE,30,1.2,2.3,90,0.01,OVC,,0.01,0.0,WeatherDisplay:10.37,2013-08-20 20:50:00,
2013-08-20 16:55:00,79.5,76.6,30.13,ENE,67,0.3,3.5,91,0.01,OVC,,0.01,0.0,WeatherDisplay:10.37,2013-08-20 20:55:00,
2013-08-20 17:00:00,79.3,76.4,30.14,East,100,1.9,5.0,91,0.01,OVC,,0.01,0.0,WeatherDisplay:10.37,2013-08-20 21:00:00,
2013-08-20 17:05:00,79.2,76.7,30.13,ENE,64,2.1,3.5,92,0.01,OVC,,0.01,0.0,WeatherDisplay:10.37,2013-08-20 21:05:00,
2013-08-20 17:10:00,78.9,76.4,30.12,ENE,77,3.2,5.8,92,0.03,RA,OVC,0.04,0.0,WeatherDisplay:10.37,2013-08-20 21:10:00,
2013-08-20 17:15:00,78.6,76.4,30.12,East,100,2.1,4.6,93,0.05,RA,OVC,0.05,0.0,WeatherDisplay:10.37,2013-08-20 21:15:00,
2013-08-20 17:20:00,78.4,76.5,30.13,ESE,108,0.0,2.3,94,0.06,RA,OVC,0.06,0.0,WeatherDisplay:10.37,2013-08-20 21:20:00,
2013-08-20 17:25:00,78.2,76.3,30.14,ENE,70,0.9,3.5,94,0.07,RA,OVC,0.08,0.0,WeatherDisplay:10.37,2013-08-20 21:25:00,
2013-08-20 17:30:00,78.1,76.6,30.14,ENE,71,0.2,2.3,95,0.10,RA,OVC,0.10,0.0,WeatherDisplay:10.37,2013-08-20 21:30:00,
2013-08-20 17:35:00,77.9,76.4,30.13,NE,51,0.5,3.5,95,0.11,RA,OVC,0.11,0.0,WeatherDisplay:10.37,2013-08-20 21:35:00,
2013-08-20 17:40:00,77.8,76.3,30.14,NE,53,0.5,3.5,95,0.10,RA,OVC,0.11,0.0,WeatherDisplay:10.37,2013-08-20 21:40:00,
2013-08-20 17:45:00,77.7,76.2,30.14,NE,53,0.0,0.0,95,0.11,RA,OVC,0.12,0.0,WeatherDisplay:10.37,2013-08-20 21:45:00,
2013-08-20 17:50:00,77.7,76.5,30.13,NE,53,0.0,0.0,96,0.11,RA,OVC,0.12,0.0,WeatherDisplay:10.37,2013-08-20 21:50:00,
2013-08-20 17:55:00,77.5,76.0,30.14,NE,53,0.0,0.0,95,0.11,OVC,,0.12,0.0,WeatherDisplay:10.37,2013-08-20 21:55:00,
2013-08-20 18:00:00,77.0,75.1,30.13,South,175,0.0,2.3,94,0.11,OVC,,0.12,0.0,WeatherDisplay:10.37,2013-08-20 22:00:00,
2013-08-20 18:05:00,76.6,74.7,30.14,South,169,0.0,0.0,94,0.12,RA,OVC,0.13,0.0,WeatherDisplay:10.37,2013-08-20 22:05:00,
2013-08-20 18:10:00,76.3,74.8,30.14,SW,224,0.9,4.6,95,0.10,RA,OVC,0.13,0.0,WeatherDisplay:10.37,2013-08-20 22:10:00,
2013-08-20 18:15:00,75.9,74.4,30.13,SW,235,1.6,3.5,95,0.08,OVC,,0.13,0.0,WeatherDisplay:10.37,2013-08-20 22:15:00,
2013-08-20 18:20:00,75.7,74.5,30.13,WSW,238,0.0,0.0,96,0.07,OVC,,0.13,0.0,WeatherDisplay:10.37,2013-08-20 22:20:00,
2013-08-20 18:25:00,75.7,74.5,30.13,WSW,238,0.0,0.0,96,0.06,OVC,,0.13,0.0,WeatherDisplay:10.37,2013-08-20 22:25:00,
2013-08-20 18:30:00,75.7,74.5,30.13,WSW,238,0.0,0.0,96,0.04,RA,OVC,0.14,0.0,WeatherDisplay:10.37,2013-08-20 22:30:00,
2013-08-20 18:35:00,75.8,74.6,30.13,WSW,238,0.0,0.0,96,0.03,RA,OVC,0.14,0.0,WeatherDisplay:10.37,2013-08-20 22:35:00,
2013-08-20 18:40:00,75.8,74.9,30.12,WSW,238,0.0,0.0,97,0.03,OVC,,0.14,0.0,WeatherDisplay:10.37,2013-08-20 22:40:00,
2013-08-20 18:45:00,75.8,74.9,30.12,WSW,238,0.0,0.0,97,0.02,OVC,,0.15,0.0,WeatherDisplay:10.37,2013-08-20 22:45:00,
2013-08-20 18:50:00,75.9,75.0,30.13,WSW,238,0.0,0.0,97,0.08,RA,OVC,0.20,0.0,WeatherDisplay:10.37,2013-08-20 22:50:00,
2013-08-20 18:55:00,75.8,74.9,30.13,WSW,238,0.0,0.0,97,0.10,RA,OVC,0.22,0.0,WeatherDisplay:10.37,2013-08-20 22:55:00,
2013-08-20 19:01:00,76.0,75.1,30.13,WNW,283,0.0,0.0,97,0.10,RA,OVC,0.22,0.0,WeatherDisplay:10.37,2013-08-20 23:01:00,
2013-08-20 19:06:00,76.0,75.1,30.13,WNW,283,0.0,0.0,97,0.10,RA,OVC,0.23,0.0,WeatherDisplay:10.37,2013-08-20 23:06:00,
2013-08-20 19:11:00,76.2,75.3,30.13,WNW,283,0.0,0.0,97,0.10,RA,OVC,0.23,0.0,WeatherDisplay:10.37,2013-08-20 23:11:00,
2013-08-20 19:16:00,76.2,75.3,30.14,WNW,283,0.0,0.0,97,0.10,OVC,,0.23,0.0,WeatherDisplay:10.37,2013-08-20 23:16:00,
2013-08-20 19:21:00,76.3,75.4,30.14,WNW,283,0.0,0.0,97,0.10,OVC,,0.23,0.0,WeatherDisplay:10.37,2013-08-20 23:21:00,
2013-08-20 19:26:00,76.3,75.4,30.14,WNW,283,0.0,0.0,97,0.10,OVC,,0.23,0.0,WeatherDisplay:10.37,2013-08-20 23:26:00,
2013-08-20 19:31:00,76.3,75.4,30.14,WNW,283,0.0,0.0,97,0.09,OVC,,0.23,0.0,WeatherDisplay:10.37,2013-08-20 23:31:00,
2013-08-20 19:36:00,76.2,75.3,30.14,WNW,283,0.0,0.0,97,0.09,OVC,,0.23,0.0,WeatherDisplay:10.37,2013-08-20 23:36:00,
2013-08-20 19:41:00,76.2,75.3,30.14,WNW,283,0.0,0.0,97,0.09,OVC,,0.23,0.0,WeatherDisplay:10.37,2013-08-20 23:41:00,
2013-08-20 19:46:00,76.1,75.2,30.14,WNW,283,0.0,0.0,97,0.09,OVC,,0.23,0.0,WeatherDisplay:10.37,2013-08-20 23:46:00,
2013-08-20 19:51:00,76.1,75.2,30.14,WNW,283,0.0,0.0,97,0.03,OVC,,0.23,0.0,WeatherDisplay:10.37,2013-08-20 23:51:00,
2013-08-20 19:56:00,76.1,75.2,30.14,WNW,283,0.0,0.0,97,0.01,OVC,,0.23,0.0,WeatherDisplay:10.37,2013-08-20 23:56:00,
2013-08-20 20:01:00,76.0,75.1,30.14,WNW,283,0.0,0.0,97,0.01,OVC,,0.23,0.0,WeatherDisplay:10.37,2013-08-21 00:01:00,
2013-08-20 20:06:00,76.0,75.1,30.14,WNW,283,0.0,0.0,97,0.00,CLR,OVC,0.23,0.0,WeatherDisplay:10.37,2013-08-21 00:06:00,
2013-08-20 20:11:00,75.9,75.0,30.14,WNW,283,0.0,0.0,97,0.00,CLR,OVC,0.23,0.0,WeatherDisplay:10.37,2013-08-21 00:11:00,
2013-08-20 20:16:00,75.9,75.0,30.14,WNW,283,0.0,0.0,97,0.00,CLR,OVC,0.23,0.0,WeatherDisplay:10.37,2013-08-21 00:16:00,
2013-08-20 20:21:00,75.9,75.3,30.14,WNW,283,0.0,0.0,98,0.00,CLR,OVC,0.23,0.0,WeatherDisplay:10.37,2013-08-21 00:21:00,
2013-08-20 20:26:00,75.9,75.3,30.14,WNW,283,0.0,0.0,98,0.00,CLR,OVC,0.23,0.0,WeatherDisplay:10.37,2013-08-21 00:26:00,
2013-08-20 20:31:00,75.8,75.2,30.14,WNW,283,0.0,0.0,98,0.00,CLR,OVC,0.23,0.0,WeatherDisplay:10.37,2013-08-21 00:31:00,
2013-08-20 20:36:00,75.8,75.2,30.14,WNW,283,0.0,0.0,98,0.00,CLR,OVC,0.23,0.0,WeatherDisplay:10.37,2013-08-21 00:36:00,
2013-08-20 20:41:00,75.7,75.1,30.14,WNW,283,0.0,0.0,98,0.00,CLR,OVC,0.23,0.0,WeatherDisplay:10.37,2013-08-21 00:41:00,
2013-08-20 20:46:00,75.7,75.1,30.15,WNW,283,0.0,0.0,98,0.00,CLR,OVC,0.23,0.0,WeatherDisplay:10.37,2013-08-21 00:46:00,
2013-08-20 20:51:00,75.7,75.1,30.15,WNW,283,0.0,0.0,98,0.00,CLR,OVC,0.23,0.0,WeatherDisplay:10.37,2013-08-21 00:51:00,
2013-08-20 20:56:00,75.7,75.1,30.15,WNW,283,0.0,0.0,98,0.00,CLR,OVC,0.23,0.0,WeatherDisplay:10.37,2013-08-21 00:56:00,
2013-08-20 21:01:00,75.6,75.0,30.15,WNW,283,0.0,0.0,98,0.00,CLR,OVC,0.23,0.0,WeatherDisplay:10.37,2013-08-21 01:01:00,
2013-08-20 21:06:00,75.7,75.1,30.15,WNW,283,0.0,0.0,98,0.00,CLR,OVC,0.23,0.0,WeatherDisplay:10.37,2013-08-21 01:06:00,
2013-08-20 21:11:00,75.7,75.1,30.15,WNW,283,0.0,0.0,98,0.00,CLR,OVC,0.23,0.0,WeatherDisplay:10.37,2013-08-21 01:11:00,
2013-08-20 21:16:00,75.7,75.1,30.15,WNW,283,0.0,0.0,98,0.00,CLR,OVC,0.23,0.0,WeatherDisplay:10.37,2013-08-21 01:16:00,
2013-08-20 21:19:00,75.7,75.1,30.15,WNW,283,0.0,0.0,98,0.00,CLR,OVC,0.23,0.0,WeatherDisplay:10.37,2013-08-21 01:19:00,
2013-08-20 21:24:00,75.6,75.0,30.14,WNW,283,0.0,0.0,98,0.00,CLR,OVC,0.23,0.0,WeatherDisplay:10.37,2013-08-21 01:24:00,
2013-08-20 21:29:00,75.5,74.9,30.14,WNW,283,0.0,0.0,98,0.00,CLR,OVC,0.23,0.0,WeatherDisplay:10.37,2013-08-21 01:29:00,
2013-08-20 21:34:00,75.5,74.9,30.15,WNW,283,0.0,0.0,98,0.00,CLR,OVC,0.23,0.0,WeatherDisplay:10.37,2013-08-21 01:34:00,
2013-08-20 21:39:00,75.5,74.9,30.15,WNW,283,0.0,0.0,98,0.00,CLR,OVC,0.23,0.0,WeatherDisplay:10.37,2013-08-21 01:39:00,
2013-08-20 21:44:00,75.4,74.8,30.15,WNW,283,0.0,0.0,98,0.00,CLR,OVC,0.23,0.0,WeatherDisplay:10.37,2013-08-21 01:44:00,
2013-08-20 21:49:00,75.3,74.7,30.15,WNW,283,0.0,0.0,98,0.00,CLR,OVC,0.23,0.0,WeatherDisplay:10.37,2013-08-21 01:49:00,
2013-08-20 21:54:00,75.4,74.8,30.15,WNW,283,0.0,0.0,98,0.00,CLR,OVC,0.23,0.0,WeatherDisplay:10.37,2013-08-21 01:54:00,
2013-08-20 21:59:00,75.5,74.9,30.15,WNW,283,0.0,0.0,98,0.00,CLR,OVC,0.23,0.0,WeatherDisplay:10.37,2013-08-21 01:59:00,
2013-08-20 22:04:00,75.5,74.9,30.15,WNW,283,0.0,0.0,98,0.00,CLR,OVC,0.23,0.0,WeatherDisplay:10.37,2013-08-21 02:04:00,
2013-08-20 22:09:00,75.4,74.8,30.15,WNW,283,0.0,0.0,98,0.00,CLR,OVC,0.23,0.0,WeatherDisplay:10.37,2013-08-21 02:09:00,
2013-08-20 22:14:00,75.3,74.7,30.15,WNW,283,0.0,0.0,98,0.00,CLR,OVC,0.23,0.0,WeatherDisplay:10.37,2013-08-21 02:14:00,
2013-08-20 22:19:00,75.3,74.7,30.16,WNW,284,0.0,0.0,98,0.00,CLR,OVC,0.23,0.0,WeatherDisplay:10.37,2013-08-21 02:19:00,
2013-08-20 22:24:00,75.2,74.6,30.16,WNW,284,0.0,0.0,98,0.00,CLR,OVC,0.23,0.0,WeatherDisplay:10.37,2013-08-21 02:24:00,
2013-08-20 22:29:00,75.2,74.6,30.15,WNW,284,0.0,0.0,98,0.00,CLR,OVC,0.23,0.0,WeatherDisplay:10.37,2013-08-21 02:29:00,
2013-08-20 22:34:00,75.1,74.5,30.16,WNW,284,0.0,0.0,98,0.00,CLR,OVC,0.23,0.0,WeatherDisplay:10.37,2013-08-21 02:34:00,
2013-08-20 22:39:00,75.1,74.5,30.16,WNW,284,0.0,0.0,98,0.00,CLR,OVC,0.23,0.0,WeatherDisplay:10.37,2013-08-21 02:39:00,
2013-08-20 22:44:00,75.1,74.5,30.16,WNW,284,0.0,0.0,98,0.00,CLR,OVC,0.23,0.0,WeatherDisplay:10.37,2013-08-21 02:44:00,
2013-08-20 22:49:00,75.1,74.5,30.16,WNW,284,0.0,0.0,98,0.00,CLR,OVC,0.23,0.0,WeatherDisplay:10.37,2013-08-21 02:49:00,
2013-08-20 22:54:00,75.2,74.6,30.16,WNW,284,0.0,0.0,98,0.00,CLR,OVC,0.23,0.0,WeatherDisplay:10.37,2013-08-21 02:54:00,
2013-08-20 23:00:00,75.2,74.6,30.16,WNW,284,0.0,0.0,98,0.00,CLR,OVC,0.23,0.0,WeatherDisplay:10.37,2013-08-21 03:00:00,
2013-08-20 23:05:00,75.2,74.6,30.16,WNW,284,0.0,0.0,98,0.00,CLR,OVC,0.23,0.0,WeatherDisplay:10.37,2013-08-21 03:05:00,
2013-08-20 23:10:00,75.1,74.5,30.17,WNW,284,0.0,0.0,98,0.00,CLR,OVC,0.23,0.0,WeatherDisplay:10.37,2013-08-21 03:10:00,
2013-08-20 23:15:00,75.1,74.5,30.17,WNW,284,0.0,0.0,98,0.00,CLR,OVC,0.23,0.0,WeatherDisplay:10.37,2013-08-21 03:15:00,
2013-08-20 23:20:00,75.1,74.5,30.17,WNW,284,0.0,0.0,98,0.00,CLR,OVC,0.23,0.0,WeatherDisplay:10.37,2013-08-21 03:20:00,
2013-08-20 23:25:00,75.1,74.5,30.17,WNW,284,0.0,0.0,98,0.00,CLR,OVC,0.23,0.0,WeatherDisplay:10.37,2013-08-21 03:25:00,
2013-08-20 23:30:00,75.1,74.5,30.18,WNW,284,0.0,0.0,98,0.00,CLR,OVC,0.23,0.0,WeatherDisplay:10.37,2013-08-21 03:30:00,
2013-08-20 23:35:00,75.1,74.5,30.18,WNW,284,0.0,0.0,98,0.00,CLR,OVC,0.23,0.0,WeatherDisplay:10.37,2013-08-21 03:35:00,
2013-08-20 23:40:00,75.2,74.6,30.18,NNW,344,0.0,0.0,98,0.00,CLR,OVC,0.23,0.0,WeatherDisplay:10.37,2013-08-21 03:40:00,
2013-08-20 23:45:00,75.5,74.9,30.18,North,5,0.0,0.0,98,0.00,CLR,OVC,0.23,0.0,WeatherDisplay:10.37,2013-08-21 03:45:00,
2013-08-20 23:50:00,75.7,75.1,30.18,ENE,71,2.4,4.0,98,0.00,CLR,OVC,0.23,0.0,WeatherDisplay:10.37,2013-08-21 03:50:00,
2013-08-20 23:55:00,75.8,75.5,30.18,ENE,76,0.3,2.3,99,0.00,CLR,OVC,0.23,0.0,WeatherDisplay:10.37,2013-08-21 03:55:00,